San Bernardino, CA

1:05 PM PDT on September 17, 2014 (GMT -0700)
San Bernardino International | Change Station
CLOSE
Current Station
Airport
Location: San Bernardino,
Elevation: 1158 ft
Nearby Weather Stations

Elev 1158 ft 34.09 °N, 117.25 °W | Updated 1 hour ago

Clear
Clear
93 °F
Feels Like 92 °F
N
7
Wind Variable Wind from WSW

Today
High -- | Low -- °F
--% Chance of Precip.
Yesterday
High -- | Low -- °F
Precip. -- in
6:33 AM 6:52 PM
Waning Crescent, 33% visible
Pressure 29.79 in
Visibility 10.0 miles
Clouds Few 8000 ft
Heat Index 92 °F
Dew Point 57 °F
Humidity 30%
Rainfall 0.00 in
Snow Depth 1 in , 0 in , 0 in
UV 8 out of 12
Pollen 6.90 out of 12
Ozone Good
PM2.5 Moderate
Flu Activity Not available.
METAR KSBD 171848Z 24006KT 10SM FEW080 34/14 A2979

More Conditions Fewer Conditions

Pressure 29.79 in
Visibility 10.0 miles
Clouds Few 8000 ft
Heat Index 92 °F
Dew Point 57 °F
Humidity 30%
Rainfall 0.00 in
Snow Depth 1 in , 0 in , 0 in
UV 8 out of 12
Pollen 6.90 out of 12
Ozone Good
PM2.5 Moderate
Flu Activity Not available.
METAR KSBD 171848Z 24006KT 10SM FEW080 34/14 A2979

More Conditions Fewer Conditions

10-Day Weather Forecast

Almanac

Astronomy

Sep. 17, 2014 Rise Set
Actual Time 6:33 AM PDT 6:52 PM PDT
Civil Twilight 6:08 AM PDT 7:17 PM PDT
Nautical Twilight 5:39 AM PDT 7:47 PM PDT
Astronomical Twilight 5:09 AM PDT 8:16 PM PDT
Moon 12:49 AM PDT 2:55 PM PDT
Length of Visible Light 13h 09m
Length of Day
12h 19m
Tomorrow will be 2m 7s shorter.
Waning Crescent, 33% of the Moon is Illuminated
Today
Waning Crescent
Sep 24
New
Oct 1
First Quarter
Oct 8
Full
Oct 15
Last Quarter

Today's Extremes

State Highs State Lows

Community

WunderPhotos

Upload Photos

1,754,154 photos uploaded!

Nearby

Air Quality

  Air Quality AQ Index Pollutant
Yesterday Moderate
OZONE
Yesterday Good
PM10
Current Moderate
PM2.5
Current Good
OZONE
Thursday Moderate
OZONE
Thursday Good
PM10
Thursday Good
CO
Thursday Good
NO2

Snow Depth

Station Depth Elevation
Adin Mountain 1 in 6200 ft
Leavitt Meadows 0 in 7200 ft
CSS Lab 0 in 6900 ft
Summit Meadow 0 in 9122 ft

Earthquake Activity

City Distance Mag. Time & Date
La Quinta, California 63 miles 2.7 8:59 PM PDT
2014-09-15
Minimum magnitude displayed is 2.5.

Coastal Water Temperatures

Place Temperature
No Stations Reporting

Nearby Weather Stations